佐賀空港の過去48時間の天気

佐賀空港 (Saga)

現在時刻: 10/18 13:04 JST (10/18 04:04 UTC) 以下の時間は現地時間です。

過去48時間のMETAR気象情報
時間 風向 風速(m/s) 視程 気温(℃) 湿度(%) 気圧(hPa) 天気現象
18 12:00 3 10km以上 21 64 1015
18 11:00 南西 3 10km以上 20 68 1016
18 10:00 北北東 2 10km以上 19 68 1016
18 09:00 北東 2 10km以上 16 82 1016
18 08:00 2 10km以上 13 94 1016
18 07:00 西北西 2 10km以上 12 94 1015
18 06:00 2 10km以上 11 94 1015
18 04:00 3 10km以上 12 94 1014
18 03:00 3 10km以上 12 100 1014
18 02:00 北西 1 10km以上 12 94 1014
18 01:00 北西 1 10km以上 12 88 1014
17 21:00 北西 2 10km以上 14 88 1014
17 20:00 北北西 3 10km以上 15 88 1014
17 19:00 北北西 3 10km以上 16 82 1013
17 18:00 北北西 3 10km以上 17 77 1013
17 17:00 4 10km以上 20 60 1012
17 16:00 4 10km以上 22 53 1012
17 15:00 4 10km以上 22 50 1012
17 14:00 5 10km以上 23 47 1011
17 13:00 5 10km以上 23 47 1012
17 12:00 4 10km以上 23 47 1012
17 11:00 南南東 2 10km以上 21 64 1013
17 10:00 北西 2 10km以上 21 60 1013
17 09:00 2 10km以上 19 68 1013
17 08:00 北北西 2 10km以上 16 88 1013
17 07:00 静穏 0 10km以上 16 82 1013
17 06:00 北北東 3 10km以上 15 88 1013
17 04:00 3 10km以上 14 88 1012
17 03:00 西北西 3 10km以上 16 88 1012
17 02:00 西北西 2 10km以上 16 88 1012
17 01:00 不定 1 10km以上 16 82 1012
16 21:00 北東 1 10km以上 18 73 1012
16 20:00 北西 2 10km以上 18 77 1012 弱い雨
16 19:00 3 10km以上 18 77 1011
16 18:00 5 10km以上 19 68 1011
16 17:00 4 10km以上 20 64 1011
16 16:00 4 10km以上 21 56 1011
16 15:00 西 4 10km以上 23 53 1010
16 14:00 西 4 10km以上 22 57 1011
RJFS 180300Z 19005KT 150V230 9999 FEW030 21/14 Q1015
RJFS 180200Z 22005KT 190V260 9999 FEW030 20/14 Q1016
RJFS 180100Z 03003KT 280V090 9999 FEW030 19/13 Q1016
RJFS 180000Z 04004KT 360V070 9999 FEW030 16/13 Q1016
RJFS 172300Z 01004KT CAVOK 13/12 Q1016
RJFS 172200Z 29003KT CAVOK 12/11 Q1015
RJFS 172100Z 01004KT CAVOK 11/10 Q1015
RJFS 171900Z 01005KT CAVOK 12/11 Q1014
RJFS 171800Z 35006KT CAVOK 12/12 Q1014
RJFS 171700Z 32002KT CAVOK 12/11 Q1014
RJFS 171600Z 31002KT CAVOK 12/10 Q1014
RJFS 171200Z 32003KT 290V360 CAVOK 14/12 Q1014
RJFS 171100Z 33006KT CAVOK 15/13 Q1014
RJFS 171000Z 33006KT 9999 FEW035 BKN/// 16/13 Q1013
RJFS 170900Z 34005KT 9999 FEW035 BKN/// 17/13 Q1013
RJFS 170800Z 01007KT 9999 FEW035 BKN/// 20/12 Q1012
RJFS 170700Z 01008KT 350V060 9999 FEW035 BKN/// 22/12 Q1012
RJFS 170600Z 01008KT 330V030 9999 FEW035 BKN/// 22/11 Q1012
RJFS 170500Z 01010KT 9999 FEW035 BKN/// 23/11 Q1011
RJFS 170400Z 36009KT 320V030 9999 FEW035 BKN/// 23/11 Q1012
RJFS 170300Z 01007KT 330V050 9999 FEW030 SCT040 BKN/// 23/11 Q1012
RJFS 170200Z 15003KT 060V210 9999 FEW035 BKN/// 21/14 Q1013
RJFS 170100Z 32004KT 260V350 9999 FEW035 BKN/// 21/13 Q1013
RJFS 170000Z 01003KT 340V050 9999 FEW035 BKN/// 19/13 Q1013
RJFS 162300Z 33004KT 9999 FEW030 SCT080 BKN/// 16/14 Q1013
RJFS 162200Z 00000KT 9999 FEW030 SCT060 BKN070 16/13 Q1013
RJFS 162100Z 02005KT 9999 FEW030 BKN060 15/13 Q1013
RJFS 161900Z 35005KT 9999 FEW030 BKN080 14/12 Q1012
RJFS 161800Z 29005KT 9999 FEW030 SCT080 BKN100 16/14 Q1012
RJFS 161700Z 30003KT 9999 FEW030 BKN090 16/14 Q1012
RJFS 161600Z VRB02KT 9999 FEW030 BKN090 16/13 Q1012
RJFS 161200Z 05002KT 9999 FEW030 BKN100 18/13 Q1012
RJFS 161100Z 32004KT 9999 -RA FEW035 SCT050 BKN100 18/14 Q1012
RJFS 161000Z 36005KT 9999 FEW035 BKN100 18/14 Q1011
RJFS 160900Z 35009KT 9999 FEW035 BKN120 19/13 Q1011
RJFS 160800Z 35008KT 9999 FEW030 BKN120 20/13 Q1011
RJFS 160700Z 35008KT 9999 FEW035 BKN130 21/12 Q1011
RJFS 160600Z 28007KT 9999 FEW035 SCT130 BKN180 23/13 Q1010
RJFS 160500Z 27008KT 9999 FEW035 SCT130 BKN180 22/13 Q1011